Chiang Mai International Airport
VTCC : now visible

Airfield :











YOU CAN JOIN US ON...

 
LOGIN :

Register | Disclaimer

   EN    FR    IT 

 









Legend :    VFR   Marginal VFR   IFR   Intensive IFR   Very Intensive IFR
Visi :
Ceiling :
>= 8 km
>= 3000ft
5 to 8 km
1000 to 3000 ft
1500m to 5 km
500 to 1000 ft
800 to 1500m
200 to 500 ft
< 800m
< 200 ft
Symbols :   Thunderstorms  Fog  Heavy snow  Heavy precipitations  Wind > 20 kt






- Airport Elevation : 1036 ft
- IATA code : CNX


VTCC - Chiang Mai International

CURRENT METAR :
  • 191730Z 00000KT CAVOK 20/14 Q1016 NOSIG

EXPIRED METARs :
  • 191700Z 00000KT CAVOK 20/14 Q1016 NOSIG
  • 191630Z 00000KT CAVOK 21/13 Q1016 NOSIG
  • 191600Z VRB02KT CAVOK 21/14 Q1016 NOSIG
  • 191530Z VRB02KT CAVOK 22/13 Q1016 NOSIG

TAF TAF VTCC
Valid from the 19 at 18:00 until the 21 at 00:00 UTC


191700Z 1918/2024 32005KT CAVOK



MET'MAP, your aeronautical weather chart ! - Copyright ORBIFLY December 2007 - Disclaimer

ORBIFLY MET'MAP TEAM :

Programming & Development : Alexandra Zaïnal
Concept & original design : Baudouin d'Aumeries
Assistance for programming : Marc-Olivier Méhu
Technical & hardware support : Manuel Goepfert

Contact : metmap@orbifly.com




SOURCES & CREDITS :

   NOAA       Earth
Advisory